sensor_id;sensor_type;location;lat;lon;timestamp;P1;durP1;ratioP1;P2;durP2;ratioP2
10269;SDS011;70826;50.930;5.334;2024-03-02T00:01:49;37.78;;;35.75;;
10269;SDS011;70826;50.930;5.334;2024-03-02T00:04:19;37.45;;;35.45;;
10269;SDS011;70826;50.930;5.334;2024-03-02T00:06:47;38.33;;;36.35;;
10269;SDS011;70826;50.930;5.334;2024-03-02T00:09:16;38.88;;;36.83;;
10269;SDS011;70826;50.930;5.334;2024-03-02T00:11:46;38.00;;;36.03;;
10269;SDS011;70826;50.930;5.334;2024-03-02T00:14:17;39.95;;;37.85;;
10269;SDS011;70826;50.930;5.334;2024-03-02T00:16:45;39.33;;;37.25;;
10269;SDS011;70826;50.930;5.334;2024-03-02T00:19:16;41.63;;;39.42;;
10269;SDS011;70826;50.930;5.334;2024-03-02T00:21:46;39.10;;;37.08;;
10269;SDS011;70826;50.930;5.334;2024-03-02T00:24:21;39.55;;;37.47;;
10269;SDS011;70826;50.930;5.334;2024-03-02T00:26:58;36.65;;;34.72;;
10269;SDS011;70826;50.930;5.334;2024-03-02T00:29:26;39.83;;;37.75;;
10269;SDS011;70826;50.930;5.334;2024-03-02T00:31:55;39.53;;;37.47;;
10269;SDS011;70826;50.930;5.334;2024-03-02T00:34:24;39.35;;;37.33;;
10269;SDS011;70826;50.930;5.334;2024-03-02T00:36:56;41.05;;;38.90;;
10269;SDS011;70826;50.930;5.334;2024-03-02T00:39:24;39.85;;;37.80;;
10269;SDS011;70826;50.930;5.334;2024-03-02T00:41:52;39.80;;;37.75;;
10269;SDS011;70826;50.930;5.334;2024-03-02T00:44:18;40.25;;;38.15;;
10269;SDS011;70826;50.930;5.334;2024-03-02T00:46:50;40.33;;;38.22;;
10269;SDS011;70826;50.930;5.334;2024-03-02T00:49:20;40.25;;;38.17;;
10269;SDS011;70826;50.930;5.334;2024-03-02T00:51:50;41.08;;;38.95;;
10269;SDS011;70826;50.930;5.334;2024-03-02T00:54:23;39.55;;;37.53;;
10269;SDS011;70826;50.930;5.334;2024-03-02T00:56:56;39.50;;;37.47;;
10269;SDS011;70826;50.930;5.334;2024-03-02T00:59:24;40.88;;;38.75;;
10269;SDS011;70826;50.930;5.334;2024-03-02T01:01:50;43.85;;;41.58;;
10269;SDS011;70826;50.930;5.334;2024-03-02T01:04:16;42.30;;;40.08;;
10269;SDS011;70826;50.930;5.334;2024-03-02T01:06:44;44.10;;;41.75;;
10269;SDS011;70826;50.930;5.334;2024-03-02T01:09:12;42.33;;;40.08;;
10269;SDS011;70826;50.930;5.334;2024-03-02T01:11:44;40.60;;;38.50;;
10269;SDS011;70826;50.930;5.334;2024-03-02T01:14:14;42.65;;;40.33;;
10269;SDS011;70826;50.930;5.334;2024-03-02T01:16:39;41.25;;;39.15;;
10269;SDS011;70826;50.930;5.334;2024-03-02T01:19:07;45.28;;;42.88;;
10269;SDS011;70826;50.930;5.334;2024-03-02T01:21:38;41.63;;;39.47;;
10269;SDS011;70826;50.930;5.334;2024-03-02T01:24:08;45.05;;;42.67;;
10269;SDS011;70826;50.930;5.334;2024-03-02T01:26:38;42.03;;;39.85;;
10269;SDS011;70826;50.930;5.334;2024-03-02T01:29:04;43.03;;;40.70;;
10269;SDS011;70826;50.930;5.334;2024-03-02T01:31:34;42.75;;;40.50;;
10269;SDS011;70826;50.930;5.334;2024-03-02T01:34:01;44.13;;;41.85;;
10269;SDS011;70826;50.930;5.334;2024-03-02T01:36:30;43.65;;;41.38;;
10269;SDS011;70826;50.930;5.334;2024-03-02T01:38:55;42.78;;;40.58;;
10269;SDS011;70826;50.930;5.334;2024-03-02T01:41:21;42.28;;;40.08;;
10269;SDS011;70826;50.930;5.334;2024-03-02T01:43:47;42.00;;;39.78;;
10269;SDS011;70826;50.930;5.334;2024-03-02T01:46:14;45.08;;;42.70;;
10269;SDS011;70826;50.930;5.334;2024-03-02T01:48:40;45.90;;;43.47;;
10269;SDS011;70826;50.930;5.334;2024-03-02T01:51:06;43.92;;;41.63;;
10269;SDS011;70826;50.930;5.334;2024-03-02T01:53:35;45.47;;;43.08;;
10269;SDS011;70826;50.930;5.334;2024-03-02T01:56:03;46.33;;;43.92;;
10269;SDS011;70826;50.930;5.334;2024-03-02T01:58:29;44.92;;;42.60;;
10269;SDS011;70826;50.930;5.334;2024-03-02T02:00:57;44.05;;;41.78;;
10269;SDS011;70826;50.930;5.334;2024-03-02T02:03:27;47.05;;;44.60;;
10269;SDS011;70826;50.930;5.334;2024-03-02T02:05:58;44.72;;;42.38;;
10269;SDS011;70826;50.930;5.334;2024-03-02T02:08:28;46.22;;;43.83;;
10269;SDS011;70826;50.930;5.334;2024-03-02T02:10:56;46.35;;;43.92;;
10269;SDS011;70826;50.930;5.334;2024-03-02T02:13:26;48.67;;;46.13;;
10269;SDS011;70826;50.930;5.334;2024-03-02T02:15:52;44.97;;;42.65;;
10269;SDS011;70826;50.930;5.334;2024-03-02T02:18:18;44.45;;;42.15;;
10269;SDS011;70826;50.930;5.334;2024-03-02T02:20:48;46.28;;;43.88;;
10269;SDS011;70826;50.930;5.334;2024-03-02T02:23:14;48.30;;;45.72;;
10269;SDS011;70826;50.930;5.334;2024-03-02T02:25:43;47.17;;;44.67;;
10269;SDS011;70826;50.930;5.334;2024-03-02T02:28:09;45.42;;;43.08;;
10269;SDS011;70826;50.930;5.334;2024-03-02T02:30:37;47.67;;;45.17;;
10269;SDS011;70826;50.930;5.334;2024-03-02T02:33:04;47.13;;;44.70;;
10269;SDS011;70826;50.930;5.334;2024-03-02T02:35:30;46.92;;;44.47;;
10269;SDS011;70826;50.930;5.334;2024-03-02T02:37:58;46.67;;;44.28;;
10269;SDS011;70826;50.930;5.334;2024-03-02T02:40:24;48.63;;;46.10;;
10269;SDS011;70826;50.930;5.334;2024-03-02T02:42:49;49.13;;;46.55;;
10269;SDS011;70826;50.930;5.334;2024-03-02T02:45:18;48.10;;;45.53;;
10269;SDS011;70826;50.930;5.334;2024-03-02T02:47:44;47.20;;;44.75;;
10269;SDS011;70826;50.930;5.334;2024-03-02T02:50:12;49.25;;;46.65;;
10269;SDS011;70826;50.930;5.334;2024-03-02T02:52:42;45.88;;;43.53;;
10269;SDS011;70826;50.930;5.334;2024-03-02T02:55:13;45.55;;;43.17;;
10269;SDS011;70826;50.930;5.334;2024-03-02T02:57:40;47.38;;;44.90;;
10269;SDS011;70826;50.930;5.334;2024-03-02T03:00:10;47.55;;;45.05;;
10269;SDS011;70826;50.930;5.334;2024-03-02T03:02:44;47.97;;;45.53;;
10269;SDS011;70826;50.930;5.334;2024-03-02T03:05:13;49.08;;;46.53;;
10269;SDS011;70826;50.930;5.334;2024-03-02T03:07:42;46.67;;;44.20;;
10269;SDS011;70826;50.930;5.334;2024-03-02T03:10:10;49.70;;;47.13;;
10269;SDS011;70826;50.930;5.334;2024-03-02T03:12:36;47.17;;;44.75;;
10269;SDS011;70826;50.930;5.334;2024-03-02T03:15:10;45.20;;;42.85;;
10269;SDS011;70826;50.930;5.334;2024-03-02T03:17:36;46.75;;;44.30;;
10269;SDS011;70826;50.930;5.334;2024-03-02T03:20:04;47.35;;;44.88;;
10269;SDS011;70826;50.930;5.334;2024-03-02T03:22:30;46.15;;;43.78;;
10269;SDS011;70826;50.930;5.334;2024-03-02T03:25:02;46.58;;;44.17;;
10269;SDS011;70826;50.930;5.334;2024-03-02T03:27:28;48.30;;;45.80;;
10269;SDS011;70826;50.930;5.334;2024-03-02T03:29:57;47.72;;;45.25;;
10269;SDS011;70826;50.930;5.334;2024-03-02T03:32:22;46.42;;;44.03;;
10269;SDS011;70826;50.930;5.334;2024-03-02T03:34:48;49.33;;;46.72;;
10269;SDS011;70826;50.930;5.334;2024-03-02T03:37:14;46.35;;;43.97;;
10269;SDS011;70826;50.930;5.334;2024-03-02T03:39:40;48.35;;;45.83;;
10269;SDS011;70826;50.930;5.334;2024-03-02T03:42:06;46.08;;;43.72;;
10269;SDS011;70826;50.930;5.334;2024-03-02T03:44:32;46.78;;;44.20;;
10269;SDS011;70826;50.930;5.334;2024-03-02T03:47:04;45.80;;;43.45;;
10269;SDS011;70826;50.930;5.334;2024-03-02T03:49:34;47.58;;;45.08;;
10269;SDS011;70826;50.930;5.334;2024-03-02T03:52:04;46.15;;;43.75;;
10269;SDS011;70826;50.930;5.334;2024-03-02T03:54:30;48.05;;;45.55;;
10269;SDS011;70826;50.930;5.334;2024-03-02T03:56:57;47.72;;;45.20;;
10269;SDS011;70826;50.930;5.334;2024-03-02T03:59:25;48.50;;;45.97;;
10269;SDS011;70826;50.930;5.334;2024-03-02T04:01:58;46.03;;;43.63;;
10269;SDS011;70826;50.930;5.334;2024-03-02T04:04:23;45.15;;;42.80;;
10269;SDS011;70826;50.930;5.334;2024-03-02T04:06:49;48.67;;;46.13;;
10269;SDS011;70826;50.930;5.334;2024-03-02T04:09:17;47.22;;;44.78;;
10269;SDS011;70826;50.930;5.334;2024-03-02T04:11:47;48.28;;;45.72;;
10269;SDS011;70826;50.930;5.334;2024-03-02T04:14:17;46.00;;;43.60;;
10269;SDS011;70826;50.930;5.334;2024-03-02T04:16:43;44.70;;;42.35;;
10269;SDS011;70826;50.930;5.334;2024-03-02T04:19:13;45.88;;;43.47;;
10269;SDS011;70826;50.930;5.334;2024-03-02T04:21:41;47.88;;;45.38;;
10269;SDS011;70826;50.930;5.334;2024-03-02T04:24:07;46.83;;;44.35;;
10269;SDS011;70826;50.930;5.334;2024-03-02T04:26:33;46.85;;;44.38;;
10269;SDS011;70826;50.930;5.334;2024-03-02T04:28:58;46.60;;;44.13;;
10269;SDS011;70826;50.930;5.334;2024-03-02T04:31:27;47.53;;;45.05;;
10269;SDS011;70826;50.930;5.334;2024-03-02T04:33:54;45.47;;;43.13;;
10269;SDS011;70826;50.930;5.334;2024-03-02T04:36:25;48.45;;;45.95;;
10269;SDS011;70826;50.930;5.334;2024-03-02T04:38:51;47.17;;;44.70;;
10269;SDS011;70826;50.930;5.334;2024-03-02T04:41:16;45.85;;;43.33;;
10269;SDS011;70826;50.930;5.334;2024-03-02T04:43:45;46.38;;;43.95;;
10269;SDS011;70826;50.930;5.334;2024-03-02T04:46:12;47.08;;;44.63;;
10269;SDS011;70826;50.930;5.334;2024-03-02T04:48:40;42.83;;;40.58;;
10269;SDS011;70826;50.930;5.334;2024-03-02T04:51:08;44.75;;;42.42;;
10269;SDS011;70826;50.930;5.334;2024-03-02T04:53:36;43.65;;;41.40;;
10269;SDS011;70826;50.930;5.334;2024-03-02T04:56:03;42.85;;;40.63;;
10269;SDS011;70826;50.930;5.334;2024-03-02T04:58:35;45.13;;;42.78;;
10269;SDS011;70826;50.930;5.334;2024-03-02T05:01:00;45.38;;;43.00;;
10269;SDS011;70826;50.930;5.334;2024-03-02T05:03:26;47.33;;;44.85;;
10269;SDS011;70826;50.930;5.334;2024-03-02T05:05:54;45.88;;;43.50;;
10269;SDS011;70826;50.930;5.334;2024-03-02T05:08:24;42.33;;;40.15;;
10269;SDS011;70826;50.930;5.334;2024-03-02T05:10:52;46.83;;;44.38;;
10269;SDS011;70826;50.930;5.334;2024-03-02T05:13:22;46.55;;;44.10;;
10269;SDS011;70826;50.930;5.334;2024-03-02T05:15:48;44.75;;;42.45;;
10269;SDS011;70826;50.930;5.334;2024-03-02T05:18:18;45.45;;;43.08;;
10269;SDS011;70826;50.930;5.334;2024-03-02T05:20:48;44.67;;;42.35;;
10269;SDS011;70826;50.930;5.334;2024-03-02T05:23:16;49.28;;;46.70;;
10269;SDS011;70826;50.930;5.334;2024-03-02T05:25:44;44.35;;;41.97;;
10269;SDS011;70826;50.930;5.334;2024-03-02T05:28:12;44.60;;;42.15;;
10269;SDS011;70826;50.930;5.334;2024-03-02T05:30:42;46.30;;;43.90;;
10269;SDS011;70826;50.930;5.334;2024-03-02T05:33:10;47.45;;;44.95;;
10269;SDS011;70826;50.930;5.334;2024-03-02T05:35:38;46.20;;;43.78;;
10269;SDS011;70826;50.930;5.334;2024-03-02T05:38:04;48.75;;;46.10;;
10269;SDS011;70826;50.930;5.334;2024-03-02T05:40:30;42.90;;;40.67;;
10269;SDS011;70826;50.930;5.334;2024-03-02T05:42:58;44.50;;;42.20;;
10269;SDS011;70826;50.930;5.334;2024-03-02T05:45:25;48.00;;;45.47;;
10269;SDS011;70826;50.930;5.334;2024-03-02T05:47:53;46.10;;;43.70;;
10269;SDS011;70826;50.930;5.334;2024-03-02T05:50:19;45.67;;;43.28;;
10269;SDS011;70826;50.930;5.334;2024-03-02T05:52:49;45.97;;;43.60;;
10269;SDS011;70826;50.930;5.334;2024-03-02T05:55:17;45.05;;;42.70;;
10269;SDS011;70826;50.930;5.334;2024-03-02T05:57:45;46.10;;;43.70;;
10269;SDS011;70826;50.930;5.334;2024-03-02T06:00:23;46.05;;;43.67;;
10269;SDS011;70826;50.930;5.334;2024-03-02T06:02:51;45.47;;;43.13;;
10269;SDS011;70826;50.930;5.334;2024-03-02T06:05:21;46.08;;;43.63;;
10269;SDS011;70826;50.930;5.334;2024-03-02T06:07:49;45.05;;;42.70;;
10269;SDS011;70826;50.930;5.334;2024-03-02T06:10:20;46.17;;;43.78;;
10269;SDS011;70826;50.930;5.334;2024-03-02T06:12:45;45.13;;;42.78;;
10269;SDS011;70826;50.930;5.334;2024-03-02T06:15:11;44.88;;;42.53;;
10269;SDS011;70826;50.930;5.334;2024-03-02T06:17:37;47.50;;;45.03;;
10269;SDS011;70826;50.930;5.334;2024-03-02T06:20:02;47.97;;;45.47;;
10269;SDS011;70826;50.930;5.334;2024-03-02T06:22:28;45.80;;;43.38;;
10269;SDS011;70826;50.930;5.334;2024-03-02T06:24:59;45.90;;;43.53;;
10269;SDS011;70826;50.930;5.334;2024-03-02T06:27:27;45.58;;;43.22;;
10269;SDS011;70826;50.930;5.334;2024-03-02T06:29:52;45.70;;;43.30;;
10269;SDS011;70826;50.930;5.334;2024-03-02T06:32:20;43.58;;;41.25;;
10269;SDS011;70826;50.930;5.334;2024-03-02T06:34:46;43.67;;;41.42;;
10269;SDS011;70826;50.930;5.334;2024-03-02T06:37:11;48.38;;;45.85;;
10269;SDS011;70826;50.930;5.334;2024-03-02T06:39:41;45.38;;;43.05;;
10269;SDS011;70826;50.930;5.334;2024-03-02T06:42:08;44.65;;;42.33;;
10269;SDS011;70826;50.930;5.334;2024-03-02T06:44:36;45.25;;;42.90;;
10269;SDS011;70826;50.930;5.334;2024-03-02T06:47:04;44.78;;;42.42;;
10269;SDS011;70826;50.930;5.334;2024-03-02T06:49:30;47.15;;;44.67;;
10269;SDS011;70826;50.930;5.334;2024-03-02T06:51:55;45.35;;;43.00;;
10269;SDS011;70826;50.930;5.334;2024-03-02T06:54:23;43.90;;;41.60;;
10269;SDS011;70826;50.930;5.334;2024-03-02T06:56:51;44.45;;;42.15;;
10269;SDS011;70826;50.930;5.334;2024-03-02T06:59:20;44.15;;;41.88;;
10269;SDS011;70826;50.930;5.334;2024-03-02T07:01:48;43.45;;;41.20;;
10269;SDS011;70826;50.930;5.334;2024-03-02T07:04:18;45.17;;;42.78;;
10269;SDS011;70826;50.930;5.334;2024-03-02T07:06:49;45.47;;;43.13;;
10269;SDS011;70826;50.930;5.334;2024-03-02T07:09:17;46.38;;;43.97;;
10269;SDS011;70826;50.930;5.334;2024-03-02T07:11:50;43.30;;;41.03;;
10269;SDS011;70826;50.930;5.334;2024-03-02T07:14:20;43.80;;;41.55;;
10269;SDS011;70826;50.930;5.334;2024-03-02T07:17:08;44.10;;;41.80;;
10269;SDS011;70826;50.930;5.334;2024-03-02T07:19:37;43.53;;;40.75;;
10269;SDS011;70826;50.930;5.334;2024-03-02T07:22:05;44.13;;;41.85;;
10269;SDS011;70826;50.930;5.334;2024-03-02T07:24:32;44.40;;;42.10;;
10269;SDS011;70826;50.930;5.334;2024-03-02T07:27:00;45.10;;;42.78;;
10269;SDS011;70826;50.930;5.334;2024-03-02T07:29:33;47.10;;;44.65;;
10269;SDS011;70826;50.930;5.334;2024-03-02T07:31:58;45.05;;;42.70;;
10269;SDS011;70826;50.930;5.334;2024-03-02T07:34:24;45.70;;;43.30;;
10269;SDS011;70826;50.930;5.334;2024-03-02T07:36:49;43.78;;;41.47;;
10269;SDS011;70826;50.930;5.334;2024-03-02T07:39:18;44.85;;;42.53;;
10269;SDS011;70826;50.930;5.334;2024-03-02T07:41:44;45.33;;;42.95;;
10269;SDS011;70826;50.930;5.334;2024-03-02T07:44:10;45.83;;;43.30;;
10269;SDS011;70826;50.930;5.334;2024-03-02T07:46:47;44.38;;;42.08;;
10269;SDS011;70826;50.930;5.334;2024-03-02T07:49:19;44.97;;;42.58;;
10269;SDS011;70826;50.930;5.334;2024-03-02T07:51:44;45.95;;;32.13;;
10269;SDS011;70826;50.930;5.334;2024-03-02T07:54:10;37.60;;;34.20;;
10269;SDS011;70826;50.930;5.334;2024-03-02T07:56:38;35.05;;;31.75;;
10269;SDS011;70826;50.930;5.334;2024-03-02T07:59:06;37.95;;;34.35;;
10269;SDS011;70826;50.930;5.334;2024-03-02T08:01:32;40.33;;;36.92;;
10269;SDS011;70826;50.930;5.334;2024-03-02T08:04:01;38.42;;;35.40;;
10269;SDS011;70826;50.930;5.334;2024-03-02T08:06:28;38.85;;;36.10;;
10269;SDS011;70826;50.930;5.334;2024-03-02T08:08:58;38.83;;;35.95;;
10269;SDS011;70826;50.930;5.334;2024-03-02T08:11:29;38.05;;;35.42;;
10269;SDS011;70826;50.930;5.334;2024-03-02T08:13:59;39.13;;;36.80;;
10269;SDS011;70826;50.930;5.334;2024-03-02T08:16:28;36.53;;;33.50;;
10269;SDS011;70826;50.930;5.334;2024-03-02T08:18:56;37.33;;;35.00;;
10269;SDS011;70826;50.930;5.334;2024-03-02T08:21:23;39.75;;;37.22;;
10269;SDS011;70826;50.930;5.334;2024-03-02T08:23:53;37.92;;;35.67;;
10269;SDS011;70826;50.930;5.334;2024-03-02T08:26:19;39.42;;;36.67;;
10269;SDS011;70826;50.930;5.334;2024-03-02T08:28:45;19.42;;;17.33;;
10269;SDS011;70826;50.930;5.334;2024-03-02T08:31:13;19.25;;;17.23;;
10269;SDS011;70826;50.930;5.334;2024-03-02T08:33:43;22.75;;;21.23;;
10269;SDS011;70826;50.930;5.334;2024-03-02T08:36:08;21.27;;;19.58;;
10269;SDS011;70826;50.930;5.334;2024-03-02T08:38:37;31.80;;;29.13;;
10269;SDS011;70826;50.930;5.334;2024-03-02T08:41:05;20.73;;;19.02;;
10269;SDS011;70826;50.930;5.334;2024-03-02T08:43:35;23.52;;;21.70;;
10269;SDS011;70826;50.930;5.334;2024-03-02T08:46:03;30.98;;;28.98;;
10269;SDS011;70826;50.930;5.334;2024-03-02T08:48:29;31.33;;;29.08;;
10269;SDS011;70826;50.930;5.334;2024-03-02T08:50:55;31.17;;;29.23;;
10269;SDS011;70826;50.930;5.334;2024-03-02T08:53:23;31.67;;;29.40;;
10269;SDS011;70826;50.930;5.334;2024-03-02T08:55:51;30.65;;;28.85;;
10269;SDS011;70826;50.930;5.334;2024-03-02T08:58:17;33.38;;;30.83;;
10269;SDS011;70826;50.930;5.334;2024-03-02T09:00:46;32.08;;;29.48;;
10269;SDS011;70826;50.930;5.334;2024-03-02T09:03:17;32.55;;;30.48;;
10269;SDS011;70826;50.930;5.334;2024-03-02T09:05:45;32.90;;;30.65;;
10269;SDS011;70826;50.930;5.334;2024-03-02T09:08:13;33.60;;;31.50;;
10269;SDS011;70826;50.930;5.334;2024-03-02T09:10:38;45.00;;;41.47;;
10269;SDS011;70826;50.930;5.334;2024-03-02T09:13:06;31.90;;;29.25;;
10269;SDS011;70826;50.930;5.334;2024-03-02T09:15:32;31.90;;;29.65;;
10269;SDS011;70826;50.930;5.334;2024-03-02T09:18:02;30.40;;;27.67;;
10269;SDS011;70826;50.930;5.334;2024-03-02T09:20:35;29.77;;;28.00;;
10269;SDS011;70826;50.930;5.334;2024-03-02T09:23:03;30.88;;;28.50;;
10269;SDS011;70826;50.930;5.334;2024-03-02T09:25:29;30.23;;;28.15;;
10269;SDS011;70826;50.930;5.334;2024-03-02T09:27:59;30.90;;;28.60;;
10269;SDS011;70826;50.930;5.334;2024-03-02T09:30:31;30.77;;;29.08;;
10269;SDS011;70826;50.930;5.334;2024-03-02T09:32:59;30.30;;;28.50;;
10269;SDS011;70826;50.930;5.334;2024-03-02T09:35:25;31.20;;;29.25;;
10269;SDS011;70826;50.930;5.334;2024-03-02T09:37:56;31.13;;;29.48;;
10269;SDS011;70826;50.930;5.334;2024-03-02T09:40:24;31.17;;;29.13;;
10269;SDS011;70826;50.930;5.334;2024-03-02T09:42:50;29.48;;;27.20;;
10269;SDS011;70826;50.930;5.334;2024-03-02T09:45:25;30.60;;;28.42;;
10269;SDS011;70826;50.930;5.334;2024-03-02T09:47:54;29.48;;;27.10;;
10269;SDS011;70826;50.930;5.334;2024-03-02T09:50:22;31.60;;;29.60;;
10269;SDS011;70826;50.930;5.334;2024-03-02T09:52:48;33.80;;;31.42;;
10269;SDS011;70826;50.930;5.334;2024-03-02T09:55:17;34.70;;;32.40;;
10269;SDS011;70826;50.930;5.334;2024-03-02T09:57:46;33.85;;;31.42;;
10269;SDS011;70826;50.930;5.334;2024-03-02T10:00:13;33.83;;;31.63;;
10269;SDS011;70826;50.930;5.334;2024-03-02T10:02:40;33.22;;;31.23;;
10269;SDS011;70826;50.930;5.334;2024-03-02T10:05:11;35.55;;;33.38;;
10269;SDS011;70826;50.930;5.334;2024-03-02T10:07:37;15.30;;;14.00;;
10269;SDS011;70826;50.930;5.334;2024-03-02T10:10:21;17.77;;;15.80;;
10269;SDS011;70826;50.930;5.334;2024-03-02T10:12:47;47.30;;;34.88;;
10269;SDS011;70826;50.930;5.334;2024-03-02T10:15:15;52.60;;;33.72;;
10269;SDS011;70826;50.930;5.334;2024-03-02T10:17:52;50.30;;;29.95;;
10269;SDS011;70826;50.930;5.334;2024-03-02T10:20:23;41.35;;;30.30;;
10269;SDS011;70826;50.930;5.334;2024-03-02T10:22:52;45.83;;;33.45;;
10269;SDS011;70826;50.930;5.334;2024-03-02T10:25:51;40.78;;;36.22;;
10269;SDS011;70826;50.930;5.334;2024-03-02T10:28:12;37.65;;;33.88;;
10269;SDS011;70826;50.930;5.334;2024-03-02T10:30:43;36.90;;;33.47;;
10269;SDS011;70826;50.930;5.334;2024-03-02T10:33:13;37.13;;;33.33;;
10269;SDS011;70826;50.930;5.334;2024-03-02T10:35:45;35.90;;;32.72;;
10269;SDS011;70826;50.930;5.334;2024-03-02T10:38:15;35.20;;;32.03;;
10269;SDS011;70826;50.930;5.334;2024-03-02T10:40:48;31.20;;;28.92;;
10269;SDS011;70826;50.930;5.334;2024-03-02T10:43:14;30.38;;;27.65;;
10269;SDS011;70826;50.930;5.334;2024-03-02T10:45:40;33.03;;;30.55;;
10269;SDS011;70826;50.930;5.334;2024-03-02T10:48:06;31.00;;;28.45;;
10269;SDS011;70826;50.930;5.334;2024-03-02T10:50:32;31.67;;;28.77;;
10269;SDS011;70826;50.930;5.334;2024-03-02T10:53:03;17.90;;;16.20;;
10269;SDS011;70826;50.930;5.334;2024-03-02T10:55:32;25.13;;;23.08;;
10269;SDS011;70826;50.930;5.334;2024-03-02T10:57:58;25.55;;;23.25;;
10269;SDS011;70826;50.930;5.334;2024-03-02T11:00:33;27.65;;;25.25;;
10269;SDS011;70826;50.930;5.334;2024-03-02T11:03:04;27.27;;;25.40;;
10269;SDS011;70826;50.930;5.334;2024-03-02T11:05:37;28.00;;;25.98;;
10269;SDS011;70826;50.930;5.334;2024-03-02T11:08:08;30.05;;;28.10;;
10269;SDS011;70826;50.930;5.334;2024-03-02T11:13:32;32.90;;;30.60;;
10269;SDS011;70826;50.930;5.334;2024-03-02T11:16:03;34.17;;;31.52;;
10269;SDS011;70826;50.930;5.334;2024-03-02T11:18:37;36.20;;;33.95;;
10269;SDS011;70826;50.930;5.334;2024-03-02T11:21:07;37.30;;;34.88;;
10269;SDS011;70826;50.930;5.334;2024-03-02T11:23:35;39.50;;;37.13;;
10269;SDS011;70826;50.930;5.334;2024-03-02T11:28:44;40.28;;;37.80;;
10269;SDS011;70826;50.930;5.334;2024-03-02T11:31:12;40.92;;;38.03;;
10269;SDS011;70826;50.930;5.334;2024-03-02T11:33:40;40.85;;;38.55;;
10269;SDS011;70826;50.930;5.334;2024-03-02T11:36:09;45.30;;;42.42;;
10269;SDS011;70826;50.930;5.334;2024-03-02T11:38:35;43.33;;;40.88;;
10269;SDS011;70826;50.930;5.334;2024-03-02T11:41:01;41.42;;;39.08;;
10269;SDS011;70826;50.930;5.334;2024-03-02T11:43:33;44.10;;;41.60;;
10269;SDS011;70826;50.930;5.334;2024-03-02T11:46:06;44.58;;;42.08;;
10269;SDS011;70826;50.930;5.334;2024-03-02T11:48:32;44.28;;;41.78;;
10269;SDS011;70826;50.930;5.334;2024-03-02T11:51:02;47.15;;;44.55;;
10269;SDS011;70826;50.930;5.334;2024-03-02T11:53:28;48.75;;;46.00;;
10269;SDS011;70826;50.930;5.334;2024-03-02T11:55:55;48.78;;;46.03;;
10269;SDS011;70826;50.930;5.334;2024-03-02T11:58:27;46.17;;;43.58;;
10269;SDS011;70826;50.930;5.334;2024-03-02T12:00:55;46.95;;;44.25;;
10269;SDS011;70826;50.930;5.334;2024-03-02T12:03:26;49.83;;;46.92;;
10269;SDS011;70826;50.930;5.334;2024-03-02T12:05:53;50.65;;;47.55;;
10269;SDS011;70826;50.930;5.334;2024-03-02T12:08:21;49.80;;;47.10;;
10269;SDS011;70826;50.930;5.334;2024-03-02T12:10:59;49.10;;;46.33;;
10269;SDS011;70826;50.930;5.334;2024-03-02T12:13:25;45.47;;;43.08;;
10269;SDS011;70826;50.930;5.334;2024-03-02T12:15:55;42.97;;;40.60;;
10269;SDS011;70826;50.930;5.334;2024-03-02T12:18:23;41.17;;;38.97;;
10269;SDS011;70826;50.930;5.334;2024-03-02T12:20:51;14.45;;;13.48;;
10269;SDS011;70826;50.930;5.334;2024-03-02T12:23:18;33.35;;;30.83;;
10269;SDS011;70826;50.930;5.334;2024-03-02T12:25:44;28.20;;;26.05;;
10269;SDS011;70826;50.930;5.334;2024-03-02T12:28:10;30.33;;;28.05;;
10269;SDS011;70826;50.930;5.334;2024-03-02T12:30:36;30.55;;;28.27;;
10269;SDS011;70826;50.930;5.334;2024-03-02T12:33:02;36.88;;;33.72;;
10269;SDS011;70826;50.930;5.334;2024-03-02T12:35:28;38.28;;;35.05;;
10269;SDS011;70826;50.930;5.334;2024-03-02T12:37:54;35.65;;;32.42;;
10269;SDS011;70826;50.930;5.334;2024-03-02T12:40:20;25.33;;;23.13;;
10269;SDS011;70826;50.930;5.334;2024-03-02T12:42:49;33.22;;;30.35;;
10269;SDS011;70826;50.930;5.334;2024-03-02T12:45:15;27.27;;;24.75;;
10269;SDS011;70826;50.930;5.334;2024-03-02T12:47:48;25.15;;;23.25;;
10269;SDS011;70826;50.930;5.334;2024-03-02T12:50:15;25.00;;;22.95;;
10269;SDS011;70826;50.930;5.334;2024-03-02T12:52:41;24.33;;;22.60;;
10269;SDS011;70826;50.930;5.334;2024-03-02T12:55:07;25.27;;;23.33;;
10269;SDS011;70826;50.930;5.334;2024-03-02T12:57:33;28.13;;;26.30;;
10269;SDS011;70826;50.930;5.334;2024-03-02T12:59:59;27.77;;;26.15;;
10269;SDS011;70826;50.930;5.334;2024-03-02T13:02:31;26.92;;;25.23;;
10269;SDS011;70826;50.930;5.334;2024-03-02T13:04:59;24.90;;;22.92;;
10269;SDS011;70826;50.930;5.334;2024-03-02T13:07:25;25.52;;;23.67;;
10269;SDS011;70826;50.930;5.334;2024-03-02T13:09:54;24.55;;;23.15;;
10269;SDS011;70826;50.930;5.334;2024-03-02T13:12:25;23.20;;;21.58;;
10269;SDS011;70826;50.930;5.334;2024-03-02T13:14:51;24.95;;;23.33;;
10269;SDS011;70826;50.930;5.334;2024-03-02T13:17:20;26.17;;;24.50;;
10269;SDS011;70826;50.930;5.334;2024-03-02T13:20:06;26.20;;;24.30;;
10269;SDS011;70826;50.930;5.334;2024-03-02T13:22:35;28.25;;;25.55;;
10269;SDS011;70826;50.930;5.334;2024-03-02T13:25:03;34.75;;;30.02;;
10269;SDS011;70826;50.930;5.334;2024-03-02T13:27:30;29.15;;;26.55;;
10269;SDS011;70826;50.930;5.334;2024-03-02T13:29:57;30.55;;;27.20;;
10269;SDS011;70826;50.930;5.334;2024-03-02T13:32:23;28.48;;;25.95;;
10269;SDS011;70826;50.930;5.334;2024-03-02T13:34:52;30.55;;;27.55;;
10269;SDS011;70826;50.930;5.334;2024-03-02T13:37:19;26.25;;;10.60;;
10269;SDS011;70826;50.930;5.334;2024-03-02T13:39:50;15.82;;;11.73;;
10269;SDS011;70826;50.930;5.334;2024-03-02T13:42:16;14.57;;;10.93;;
10269;SDS011;70826;50.930;5.334;2024-03-02T13:44:45;14.45;;;12.02;;
10269;SDS011;70826;50.930;5.334;2024-03-02T13:47:13;13.32;;;12.20;;
10269;SDS011;70826;50.930;5.334;2024-03-02T13:49:40;13.18;;;12.02;;
10269;SDS011;70826;50.930;5.334;2024-03-02T13:52:12;12.88;;;11.50;;
10269;SDS011;70826;50.930;5.334;2024-03-02T13:54:40;13.40;;;12.20;;
10269;SDS011;70826;50.930;5.334;2024-03-02T13:57:06;15.02;;;13.65;;
10269;SDS011;70826;50.930;5.334;2024-03-02T13:59:33;14.57;;;13.63;;
10269;SDS011;70826;50.930;5.334;2024-03-02T14:02:02;19.20;;;17.88;;
10269;SDS011;70826;50.930;5.334;2024-03-02T14:04:36;18.80;;;17.52;;
10269;SDS011;70826;50.930;5.334;2024-03-02T14:07:02;22.83;;;21.17;;
10269;SDS011;70826;50.930;5.334;2024-03-02T14:09:28;27.02;;;24.75;;
10269;SDS011;70826;50.930;5.334;2024-03-02T14:11:54;30.45;;;28.40;;
10269;SDS011;70826;50.930;5.334;2024-03-02T14:14:20;35.50;;;33.40;;
10269;SDS011;70826;50.930;5.334;2024-03-02T14:16:46;40.28;;;37.58;;
10269;SDS011;70826;50.930;5.334;2024-03-02T14:19:14;48.08;;;45.15;;
10269;SDS011;70826;50.930;5.334;2024-03-02T14:21:42;53.20;;;49.92;;
10269;SDS011;70826;50.930;5.334;2024-03-02T14:24:10;54.30;;;51.05;;
10269;SDS011;70826;50.930;5.334;2024-03-02T14:26:36;56.47;;;52.90;;
10269;SDS011;70826;50.930;5.334;2024-03-02T14:29:02;52.10;;;49.00;;
10269;SDS011;70826;50.930;5.334;2024-03-02T14:31:28;56.25;;;52.67;;
10269;SDS011;70826;50.930;5.334;2024-03-02T14:33:54;54.53;;;51.42;;